createdAt,value
2022-08-22T00:01:28.860Z,13.84
2022-08-22T00:02:48.063Z,16.69
2022-08-22T00:02:53.248Z,16.07
2022-08-22T00:03:11.562Z,14.18
2022-08-22T00:03:55.446Z,13.88
2022-08-22T00:06:36.150Z,13.85
2022-08-22T00:09:20.262Z,13.94
2022-08-22T00:11:58.124Z,13.76
2022-08-22T00:14:32.835Z,13.82
2022-08-22T00:17:14.019Z,13.72
2022-08-22T00:19:47.043Z,13.73
2022-08-22T00:22:19.819Z,13.65
2022-08-22T00:24:58.531Z,13.61
2022-08-22T00:27:34.409Z,13.57
2022-08-22T00:30:07.969Z,13.62
2022-08-22T00:32:43.915Z,13.50
2022-08-22T00:39:04.742Z,13.43
2022-08-22T00:41:42.134Z,13.55
2022-08-22T00:44:08.477Z,13.56
2022-08-22T00:46:54.130Z,13.40
2022-08-22T00:49:32.552Z,13.46
2022-08-22T00:52:25.725Z,13.48
2022-08-22T00:55:01.813Z,13.42
2022-08-22T00:57:28.147Z,13.39
2022-08-22T01:00:13.446Z,13.50
2022-08-22T01:02:40.763Z,13.47
2022-08-22T01:05:26.779Z,13.44
2022-08-22T01:08:12.899Z,13.36
2022-08-22T01:10:44.785Z,13.40
2022-08-22T01:13:29.944Z,13.38
2022-08-22T01:16:04.088Z,13.53
2022-08-22T01:18:44.366Z,13.56
2022-08-22T01:21:10.646Z,13.40
2022-08-22T01:24:05.525Z,13.36
2022-08-22T01:26:46.664Z,13.28
2022-08-22T01:29:31.491Z,13.31
2022-08-22T01:31:58.206Z,13.38
2022-08-22T01:34:42.060Z,13.35
2022-08-22T01:37:26.954Z,13.24
2022-08-22T01:40:12.976Z,13.26
2022-08-22T01:43:06.319Z,13.38
2022-08-22T01:45:32.619Z,13.42
2022-08-22T01:48:12.297Z,13.34
2022-08-22T01:50:57.933Z,13.27
2022-08-22T01:53:38.971Z,13.39
2022-08-22T01:56:21.912Z,13.21
2022-08-22T01:58:59.834Z,13.22
2022-08-22T02:01:37.043Z,13.25
2022-08-22T02:04:14.332Z,13.39
2022-08-22T02:06:44.585Z,13.41
2022-08-22T02:09:20.301Z,13.34
2022-08-22T02:11:50.155Z,13.31
2022-08-22T02:14:25.300Z,13.24
2022-08-22T02:17:08.207Z,13.22
2022-08-22T02:19:39.940Z,13.26
2022-08-22T02:22:21.547Z,13.25
2022-08-22T02:25:10.015Z,13.32
2022-08-22T02:27:39.734Z,13.34
2022-08-22T02:30:09.814Z,13.37
2022-08-22T02:32:42.276Z,13.39
2022-08-22T02:35:17.685Z,13.36
2022-08-22T02:38:02.713Z,13.40
2022-08-22T02:40:35.206Z,13.45
2022-08-22T02:43:19.998Z,13.44
2022-08-22T02:45:55.093Z,13.44
2022-08-22T02:48:37.269Z,13.43
2022-08-22T02:51:13.220Z,13.43
2022-08-22T02:53:48.814Z,13.43
2022-08-22T02:56:18.650Z,13.44
2022-08-22T02:58:59.133Z,13.46
2022-08-22T03:01:32.489Z,13.46
2022-08-22T03:04:18.218Z,13.41
2022-08-22T03:06:59.403Z,13.43
2022-08-22T03:09:29.568Z,13.41
2022-08-22T03:12:09.531Z,13.43
2022-08-22T03:14:43.423Z,13.46
2022-08-22T03:17:23.505Z,13.49
2022-08-22T03:20:02.113Z,13.39
2022-08-22T03:22:41.667Z,13.40
2022-08-22T03:25:48.500Z,13.40
2022-08-22T03:28:18.465Z,13.41
2022-08-22T03:31:05.293Z,13.46
2022-08-22T03:33:32.121Z,13.42
2022-08-22T03:36:01.822Z,13.33
2022-08-22T03:38:34.292Z,13.40
2022-08-22T03:41:12.969Z,13.35
2022-08-22T03:44:01.896Z,13.35
2022-08-22T03:46:47.059Z,13.39
2022-08-22T03:49:32.326Z,13.41
2022-08-22T03:51:58.616Z,13.40
2022-08-22T03:54:33.904Z,13.41
2022-08-22T03:57:18.822Z,13.49
2022-08-22T03:59:48.153Z,13.52
2022-08-22T04:02:42.170Z,13.51
2022-08-22T04:05:06.967Z,13.50
2022-08-22T04:07:54.511Z,13.48
2022-08-22T04:10:39.879Z,13.50
2022-08-22T04:13:12.761Z,13.54
2022-08-22T04:15:58.050Z,13.53
2022-08-22T04:18:36.257Z,13.53
2022-08-22T04:21:21.388Z,13.53
2022-08-22T04:24:06.613Z,13.57
2022-08-22T04:29:23.034Z,13.62
2022-08-22T04:32:10.656Z,13.72
2022-08-22T04:34:57.414Z,13.67
2022-08-22T04:37:29.034Z,13.61
2022-08-22T04:40:11.959Z,13.60
2022-08-22T04:42:40.892Z,13.72
2022-08-22T04:45:14.045Z,13.81
2022-08-22T04:47:43.032Z,13.73
2022-08-22T04:50:21.528Z,13.73
2022-08-22T04:53:08.923Z,13.96
2022-08-22T04:55:39.697Z,13.73
2022-08-22T04:58:32.340Z,13.71
2022-08-22T05:01:11.012Z,13.90
2022-08-22T05:03:45.043Z,14.01
2022-08-22T05:06:13.426Z,13.90
2022-08-22T05:08:40.394Z,13.96
2022-08-22T05:11:07.601Z,13.94
2022-08-22T05:13:39.130Z,13.97
2022-08-22T05:16:09.498Z,13.98
2022-08-22T05:18:39.394Z,14.00
2022-08-22T05:21:08.200Z,14.12
2022-08-22T05:23:39.532Z,14.12
2022-08-22T05:26:07.271Z,14.16
2022-08-22T05:28:42.447Z,14.22
2022-08-22T05:31:10.935Z,14.24
2022-08-22T05:33:42.046Z,14.22
2022-08-22T05:36:15.720Z,14.31
2022-08-22T05:38:47.162Z,14.39
2022-08-22T05:41:17.860Z,14.45
2022-08-22T05:43:45.089Z,14.47
2022-08-22T05:46:26.984Z,14.52
2022-08-22T05:48:57.941Z,14.64
2022-08-22T05:51:27.926Z,14.60
2022-08-22T05:54:01.669Z,14.64
2022-08-22T05:56:35.834Z,14.81
2022-08-22T05:59:08.467Z,14.71
2022-08-22T06:01:53.701Z,14.73
2022-08-22T06:04:30.176Z,14.86
2022-08-22T06:06:59.893Z,14.88
2022-08-22T06:09:46.675Z,14.95
2022-08-22T06:12:31.416Z,15.01
2022-08-22T06:15:00.367Z,15.06
2022-08-22T06:17:28.910Z,15.09
2022-08-22T06:19:55.337Z,15.13
2022-08-22T06:22:24.211Z,15.19
2022-08-22T06:24:52.956Z,15.23
2022-08-22T06:27:22.934Z,15.28
2022-08-22T06:29:57.691Z,15.35
2022-08-22T06:32:52.869Z,15.43
2022-08-22T06:35:19.441Z,15.51
2022-08-22T06:37:47.778Z,15.61
2022-08-22T06:40:15.432Z,15.68
2022-08-22T06:42:43.291Z,15.90
2022-08-22T06:45:18.792Z,15.93
2022-08-22T06:47:53.936Z,16.02
2022-08-22T06:50:31.849Z,16.19
2022-08-22T06:53:05.393Z,16.21
2022-08-22T06:55:32.422Z,16.27
2022-08-22T06:58:03.579Z,16.34
2022-08-22T07:00:31.705Z,16.43
2022-08-22T07:03:18.267Z,16.37
2022-08-22T07:05:44.589Z,16.42
2022-08-22T07:08:13.627Z,16.41
2022-08-22T07:10:41.235Z,16.45
2022-08-22T07:13:11.683Z,16.49
2022-08-22T07:15:41.137Z,16.56
2022-08-22T07:18:16.855Z,16.57
2022-08-22T07:20:47.484Z,16.67
2022-08-22T07:23:24.505Z,16.77
2022-08-22T07:25:52.724Z,16.81
2022-08-22T07:28:51.085Z,16.90
2022-08-22T07:31:42.254Z,17.07
2022-08-22T07:34:27.529Z,17.07
2022-08-22T07:37:01.148Z,17.29
2022-08-22T07:39:27.445Z,17.47
2022-08-22T07:41:59.126Z,17.38
2022-08-22T07:44:29.456Z,17.47
2022-08-22T07:46:58.557Z,17.57
2022-08-22T07:49:26.785Z,17.67
2022-08-22T07:51:55.129Z,17.54
2022-08-22T07:54:27.120Z,17.77
2022-08-22T07:56:57.689Z,18.01
2022-08-22T07:59:24.559Z,18.04
2022-08-22T08:01:53.023Z,17.84
2022-08-22T08:04:21.000Z,17.87
2022-08-22T08:06:48.591Z,17.90
2022-08-22T08:09:16.225Z,18.11
2022-08-22T08:11:43.532Z,18.09
2022-08-22T08:14:13.629Z,18.46
2022-08-22T08:16:59.075Z,18.55
2022-08-22T08:19:25.751Z,18.48
2022-08-22T08:21:54.112Z,18.38
2022-08-22T08:24:36.196Z,18.57
2022-08-22T08:27:27.531Z,18.65
2022-08-22T08:29:58.862Z,18.73
2022-08-22T08:32:27.825Z,18.66
2022-08-22T08:34:54.318Z,18.49
2022-08-22T08:37:35.076Z,18.52
2022-08-22T08:40:03.231Z,18.54
2022-08-22T08:42:56.517Z,18.73
2022-08-22T08:45:43.575Z,18.86
2022-08-22T08:48:24.886Z,18.93
2022-08-22T08:50:58.008Z,19.18
2022-08-22T08:53:44.018Z,19.11
2022-08-22T08:56:25.259Z,19.18
2022-08-22T08:59:00.338Z,19.20
2022-08-22T09:01:46.114Z,19.31
2022-08-22T09:04:21.676Z,19.29
2022-08-22T09:07:01.389Z,19.09
2022-08-22T09:09:43.264Z,18.77
2022-08-22T09:12:16.494Z,18.81
2022-08-22T09:14:52.367Z,18.88
2022-08-22T09:17:34.423Z,18.95
2022-08-22T09:20:15.532Z,18.74
2022-08-22T09:23:10.103Z,18.76
2022-08-22T09:25:42.711Z,18.93
2022-08-22T09:28:10.580Z,19.01
2022-08-22T09:31:00.266Z,19.11
2022-08-22T09:33:33.978Z,18.95
2022-08-22T09:36:06.251Z,19.11
2022-08-22T09:38:55.325Z,19.46
2022-08-22T09:41:30.528Z,19.73
2022-08-22T09:44:09.251Z,20.11
2022-08-22T09:46:44.125Z,20.00
2022-08-22T09:49:25.681Z,19.78
2022-08-22T09:52:15.253Z,19.85
2022-08-22T09:55:03.259Z,20.08
2022-08-22T09:57:42.547Z,20.03
2022-08-22T10:00:14.685Z,20.09
2022-08-22T10:02:54.808Z,19.96
2022-08-22T10:05:40.437Z,20.10
2022-08-22T10:08:30.400Z,20.04
2022-08-22T10:11:09.740Z,20.11
2022-08-22T10:13:41.915Z,19.91
2022-08-22T10:16:26.873Z,19.91
2022-08-22T10:19:16.930Z,20.04
2022-08-22T10:21:48.136Z,19.65
2022-08-22T10:24:25.149Z,19.69
2022-08-22T10:27:02.764Z,19.99
2022-08-22T10:29:38.258Z,19.94
2022-08-22T10:32:19.678Z,20.18
2022-08-22T10:34:55.742Z,19.92
2022-08-22T10:37:30.483Z,19.76
2022-08-22T10:40:14.939Z,19.55
2022-08-22T10:42:44.922Z,19.75
2022-08-22T10:45:24.066Z,19.53
2022-08-22T10:48:08.984Z,19.67
2022-08-22T10:50:36.990Z,19.66
2022-08-22T10:53:29.452Z,19.32
2022-08-22T10:56:14.881Z,19.63
2022-08-22T10:58:56.162Z,19.71
2022-08-22T11:01:38.461Z,19.77
2022-08-22T11:04:28.346Z,19.77
2022-08-22T11:07:12.202Z,19.72
2022-08-22T11:09:39.955Z,19.62
2022-08-22T11:12:18.249Z,19.69
2022-08-22T11:15:03.250Z,19.36
2022-08-22T11:17:54.193Z,19.34
2022-08-22T11:20:21.417Z,19.51
2022-08-22T11:22:48.105Z,19.57
2022-08-22T11:25:38.580Z,19.31
2022-08-22T11:28:20.544Z,19.66
2022-08-22T11:31:07.202Z,19.52
2022-08-22T11:33:46.902Z,19.46
2022-08-22T11:36:33.011Z,19.45
2022-08-22T11:38:59.545Z,19.51
2022-08-22T11:41:36.637Z,19.65
2022-08-22T11:44:06.891Z,19.65
2022-08-22T11:46:35.504Z,19.84
2022-08-22T11:49:04.798Z,20.19
2022-08-22T11:51:34.225Z,19.84
2022-08-22T11:54:17.952Z,19.66
2022-08-22T11:56:48.913Z,19.50
2022-08-22T11:59:28.238Z,19.67
2022-08-22T12:02:00.470Z,19.71
2022-08-22T12:04:35.772Z,19.88
2022-08-22T12:07:18.260Z,19.83
2022-08-22T12:09:52.006Z,19.87
2022-08-22T12:12:20.204Z,19.57
2022-08-22T12:15:03.223Z,19.56
2022-08-22T12:17:55.796Z,19.49
2022-08-22T12:20:38.814Z,19.79
2022-08-22T12:23:48.610Z,19.71
2022-08-22T12:26:33.917Z,20.02
2022-08-22T12:29:18.900Z,20.12
2022-08-22T12:32:04.685Z,20.04
2022-08-22T12:34:39.426Z,19.93
2022-08-22T12:37:08.274Z,20.01
2022-08-22T12:39:41.087Z,20.15
2022-08-22T12:42:19.996Z,20.32
2022-08-22T12:44:46.284Z,20.26
2022-08-22T12:47:38.555Z,20.46
2022-08-22T12:50:19.716Z,20.39
2022-08-22T12:52:47.901Z,20.50
2022-08-22T12:55:14.315Z,20.63
2022-08-22T12:57:40.726Z,20.40
2022-08-22T13:00:26.877Z,20.06
2022-08-22T13:02:54.427Z,20.08
2022-08-22T13:05:22.695Z,20.27
2022-08-22T13:08:02.327Z,19.74
2022-08-22T13:10:31.084Z,19.83
2022-08-22T13:12:58.405Z,20.02
2022-08-22T13:15:28.512Z,20.18
2022-08-22T13:18:08.672Z,19.81
2022-08-22T13:20:44.891Z,19.95
2022-08-22T13:23:17.747Z,19.95
2022-08-22T13:25:55.015Z,20.15
2022-08-22T13:28:21.877Z,20.32
2022-08-22T13:30:51.954Z,20.36
2022-08-22T13:33:33.029Z,20.68
2022-08-22T13:36:10.959Z,20.50
2022-08-22T13:38:46.373Z,20.31
2022-08-22T13:41:18.148Z,20.12
2022-08-22T13:43:59.684Z,20.15
2022-08-22T13:46:28.228Z,19.96
2022-08-22T13:49:00.822Z,19.95
2022-08-22T13:51:30.167Z,20.01
2022-08-22T13:54:02.797Z,19.99
2022-08-22T13:56:52.635Z,20.02
2022-08-22T13:59:49.733Z,20.01
2022-08-22T14:02:18.676Z,20.12
2022-08-22T14:04:47.497Z,19.81
2022-08-22T14:07:43.307Z,19.98
2022-08-22T14:10:15.327Z,20.07
2022-08-22T14:12:50.096Z,20.27
2022-08-22T14:15:21.152Z,20.26
2022-08-22T14:17:48.292Z,20.13
2022-08-22T14:20:32.016Z,19.83
2022-08-22T14:23:04.204Z,19.84
2022-08-22T14:25:35.294Z,19.85
2022-08-22T14:28:06.506Z,20.07
2022-08-22T14:30:54.200Z,19.77
2022-08-22T14:33:26.507Z,19.87
2022-08-22T14:35:56.435Z,19.86
2022-08-22T14:38:29.955Z,20.14
2022-08-22T14:41:05.425Z,20.01
2022-08-22T14:43:31.943Z,20.20
2022-08-22T14:46:05.601Z,20.14
2022-08-22T14:48:48.618Z,20.18
2022-08-22T14:51:21.237Z,20.02
2022-08-22T14:53:48.303Z,19.81
2022-08-22T14:56:24.686Z,19.84
2022-08-22T14:59:02.772Z,19.75
2022-08-22T15:01:32.897Z,19.74
2022-08-22T15:04:04.774Z,19.75
2022-08-22T15:06:36.172Z,19.78
2022-08-22T15:09:07.712Z,19.83
2022-08-22T15:11:34.535Z,19.82
2022-08-22T15:14:06.603Z,19.92
2022-08-22T15:16:40.468Z,19.85
2022-08-22T15:19:23.081Z,19.60
2022-08-22T15:21:49.948Z,19.82
2022-08-22T15:24:16.722Z,19.44
2022-08-22T15:26:51.760Z,19.47
2022-08-22T15:29:20.344Z,19.53
2022-08-22T15:31:49.640Z,19.42
2022-08-22T15:34:37.851Z,19.52
2022-08-22T15:37:20.388Z,19.48
2022-08-22T15:40:02.946Z,19.62
2022-08-22T15:42:36.772Z,19.66
2022-08-22T15:45:04.603Z,19.68
2022-08-22T15:47:38.239Z,19.57
2022-08-22T15:50:07.927Z,19.37
2022-08-22T15:53:04.652Z,19.53
2022-08-22T15:55:31.839Z,19.35
2022-08-22T15:58:12.922Z,19.41
2022-08-22T16:00:45.326Z,19.41
2022-08-22T16:03:26.327Z,19.24
2022-08-22T16:05:55.955Z,19.35
2022-08-22T16:08:25.298Z,19.24
2022-08-22T16:11:11.491Z,19.29
2022-08-22T16:13:40.839Z,19.10
2022-08-22T16:16:07.212Z,19.08
2022-08-22T16:18:33.678Z,19.07
2022-08-22T16:21:08.051Z,19.08
2022-08-22T16:23:49.850Z,19.19
2022-08-22T16:26:18.052Z,18.95
2022-08-22T16:28:58.913Z,19.01
2022-08-22T16:31:31.851Z,19.28
2022-08-22T16:34:18.331Z,19.04
2022-08-22T16:37:03.100Z,19.03
2022-08-22T16:39:35.638Z,19.17
2022-08-22T16:42:22.200Z,19.04
2022-08-22T16:44:54.563Z,19.09
2022-08-22T16:47:22.461Z,19.02
2022-08-22T16:49:51.758Z,19.13
2022-08-22T16:52:21.237Z,19.03
2022-08-22T16:54:49.149Z,19.09
2022-08-22T16:57:20.420Z,19.02
2022-08-22T16:59:47.030Z,18.97
2022-08-22T17:02:25.786Z,18.85
2022-08-22T17:05:04.258Z,18.90
2022-08-22T17:07:43.828Z,18.84
2022-08-22T17:10:21.570Z,18.83
2022-08-22T17:12:54.065Z,18.78
2022-08-22T17:15:25.841Z,18.77
2022-08-22T17:17:55.350Z,18.76
2022-08-22T17:20:40.712Z,18.72
2022-08-22T17:23:28.664Z,18.75
2022-08-22T17:26:08.769Z,18.85
2022-08-22T17:28:46.116Z,18.67
2022-08-22T17:31:32.468Z,18.67
2022-08-22T17:34:17.377Z,18.64
2022-08-22T17:36:43.990Z,18.58
2022-08-22T17:39:18.948Z,18.56
2022-08-22T17:41:50.772Z,18.54
2022-08-22T17:44:22.152Z,18.52
2022-08-22T17:47:07.281Z,18.52
2022-08-22T17:49:45.150Z,18.48
2022-08-22T17:52:27.831Z,18.48
2022-08-22T17:55:06.131Z,18.41
2022-08-22T17:57:44.274Z,18.35
2022-08-22T18:00:18.412Z,18.33
2022-08-22T18:02:56.258Z,18.31
2022-08-22T18:05:31.542Z,18.32
2022-08-22T18:07:57.833Z,18.33
2022-08-22T18:10:38.303Z,18.33
2022-08-22T18:13:07.700Z,18.32
2022-08-22T18:15:40.284Z,18.32
2022-08-22T18:18:19.544Z,18.21
2022-08-22T18:20:48.381Z,18.21
2022-08-22T18:23:35.585Z,18.21
2022-08-22T18:26:20.530Z,18.23
2022-08-22T18:28:57.196Z,18.18
2022-08-22T18:31:23.472Z,18.18
2022-08-22T18:33:54.027Z,18.10
2022-08-22T18:36:23.454Z,18.07
2022-08-22T18:38:50.621Z,18.05
2022-08-22T18:41:24.371Z,17.99
2022-08-22T18:43:53.299Z,17.96
2022-08-22T18:46:26.610Z,17.90
2022-08-22T18:49:14.258Z,17.90
2022-08-22T18:51:39.930Z,17.93
2022-08-22T18:54:09.007Z,17.91
2022-08-22T18:56:50.252Z,17.93
2022-08-22T18:59:35.099Z,17.89
2022-08-22T19:02:13.527Z,17.89
2022-08-22T19:05:05.265Z,17.86
2022-08-22T19:07:49.784Z,17.84
2022-08-22T19:10:27.651Z,17.76
2022-08-22T19:13:00.632Z,17.74
2022-08-22T19:15:32.021Z,17.71
2022-08-22T19:18:17.038Z,17.66
2022-08-22T19:21:02.299Z,17.62
2022-08-22T19:23:31.594Z,17.51
2022-08-22T19:26:16.784Z,17.56
2022-08-22T19:28:43.183Z,17.50
2022-08-22T19:31:42.760Z,17.42
2022-08-22T19:34:28.298Z,17.45
2022-08-22T19:37:32.517Z,17.42
2022-08-22T19:40:00.827Z,17.31
2022-08-22T19:42:31.935Z,17.22
2022-08-22T19:45:01.339Z,17.12
2022-08-22T19:47:34.728Z,17.10
2022-08-22T19:50:01.030Z,17.11
2022-08-22T19:52:32.529Z,17.03
2022-08-22T19:55:07.007Z,16.97
2022-08-22T19:57:55.941Z,16.93
2022-08-22T20:00:24.608Z,16.97
2022-08-22T20:02:50.948Z,16.98
2022-08-22T20:05:23.077Z,16.82
2022-08-22T20:07:56.021Z,16.73
2022-08-22T20:10:29.538Z,16.61
2022-08-22T20:13:02.153Z,16.65
2022-08-22T20:15:30.240Z,16.59
2022-08-22T20:18:46.427Z,16.62
2022-08-22T20:20:56.872Z,16.60
2022-08-22T20:23:26.573Z,16.64
2022-08-22T20:25:55.865Z,16.42
2022-08-22T20:28:34.370Z,16.48
2022-08-22T20:31:04.059Z,16.44
2022-08-22T20:33:35.364Z,16.42
2022-08-22T20:36:05.139Z,16.34
2022-08-22T20:38:34.823Z,16.46
2022-08-22T20:41:11.404Z,16.39
2022-08-22T20:43:38.636Z,16.43
2022-08-22T20:46:24.023Z,16.31
2022-08-22T20:48:51.976Z,16.39
2022-08-22T20:51:21.877Z,16.39
2022-08-22T20:54:02.054Z,16.42
2022-08-22T20:56:36.802Z,16.50
2022-08-22T20:59:14.505Z,16.27
2022-08-22T21:01:40.885Z,16.16
2022-08-22T21:04:07.637Z,16.25
2022-08-22T21:06:35.997Z,16.28
2022-08-22T21:09:36.819Z,16.30
2022-08-22T21:12:03.703Z,16.30
2022-08-22T21:14:34.050Z,16.20
2022-08-22T21:17:15.963Z,16.37
2022-08-22T21:19:42.280Z,16.38
2022-08-22T21:22:15.773Z,16.33
2022-08-22T21:24:42.202Z,16.28
2022-08-22T21:27:14.407Z,16.35
2022-08-22T21:29:46.118Z,16.13
2022-08-22T21:32:23.453Z,16.35
2022-08-22T21:34:50.139Z,16.18
2022-08-22T21:37:22.640Z,16.16
2022-08-22T21:39:50.463Z,16.23
2022-08-22T21:42:24.753Z,16.23
2022-08-22T21:45:00.570Z,16.29
2022-08-22T21:47:32.703Z,16.24
2022-08-22T21:50:18.790Z,16.24
2022-08-22T21:53:05.532Z,16.37
2022-08-22T21:55:38.309Z,16.25
2022-08-22T21:58:04.633Z,16.14
2022-08-22T22:00:50.678Z,16.17
2022-08-22T22:03:21.518Z,16.14
2022-08-22T22:05:49.451Z,16.08
2022-08-22T22:08:16.302Z,16.03
2022-08-22T22:10:43.281Z,16.06
2022-08-22T22:13:10.229Z,16.09
2022-08-22T22:15:40.565Z,16.16
2022-08-22T22:18:06.964Z,16.17
2022-08-22T22:20:33.944Z,16.21
2022-08-22T22:23:00.260Z,16.18
2022-08-22T22:25:41.191Z,16.12
2022-08-22T22:28:10.604Z,16.15
2022-08-22T22:30:37.074Z,16.17
2022-08-22T22:33:03.492Z,16.10
2022-08-22T22:35:30.417Z,16.10
2022-08-22T22:37:56.883Z,16.15
2022-08-22T22:40:24.183Z,16.15
2022-08-22T22:42:50.714Z,16.15
2022-08-22T22:45:17.105Z,16.21
2022-08-22T22:47:43.654Z,16.23
2022-08-22T22:50:10.034Z,16.16
2022-08-22T22:52:40.674Z,16.11
2022-08-22T22:55:07.950Z,16.09
2022-08-22T22:57:42.540Z,16.02
2022-08-22T23:00:10.893Z,16.04
2022-08-22T23:02:37.234Z,16.03
2022-08-22T23:05:03.776Z,16.03
2022-08-22T23:07:30.165Z,16.21
2022-08-22T23:10:01.487Z,16.28
2022-08-22T23:12:28.578Z,16.16
2022-08-22T23:14:54.986Z,16.12
2022-08-22T23:17:21.433Z,16.07
2022-08-22T23:19:47.832Z,16.06
2022-08-22T23:22:14.237Z,16.06
2022-08-22T23:24:41.700Z,16.02
2022-08-22T23:27:08.930Z,15.96
2022-08-22T23:29:35.731Z,15.98
2022-08-22T23:32:02.868Z,15.97
2022-08-22T23:34:30.947Z,15.99
2022-08-22T23:36:59.009Z,15.97
2022-08-22T23:39:26.542Z,15.99
2022-08-22T23:41:52.981Z,16.00
2022-08-22T23:44:21.164Z,16.03
2022-08-22T23:46:47.533Z,16.02
2022-08-22T23:49:14.652Z,16.19
2022-08-22T23:51:42.310Z,16.29
2022-08-22T23:54:09.014Z,16.14
2022-08-22T23:56:40.032Z,16.00
2022-08-22T23:59:10.486Z,16.03
